createdAt,value
2023-02-11T00:00:42.911Z,94946.56
2023-02-11T00:03:10.604Z,94940.72
2023-02-11T00:05:37.910Z,94934.97
2023-02-11T00:08:05.578Z,94940.19
2023-02-11T00:10:33.212Z,94937.69
2023-02-11T00:13:00.469Z,94932.13
2023-02-11T00:15:27.987Z,94933.78
2023-02-11T00:17:56.194Z,94932.47
2023-02-11T00:20:23.413Z,94940.66
2023-02-11T00:22:50.732Z,94936.31
2023-02-11T00:25:18.435Z,94936.19
2023-02-11T00:27:45.759Z,94936.56
2023-02-11T00:30:13.586Z,94928.53
2023-02-11T00:32:42.799Z,94930.34
2023-02-11T00:35:10.115Z,94943.47
2023-02-11T00:37:39.290Z,94941.22
2023-02-11T00:40:07.455Z,94944.75
2023-02-11T00:42:35.798Z,94940.09
2023-02-11T00:45:03.569Z,94945.03
2023-02-11T00:47:31.221Z,94941.03
2023-02-11T00:50:01.299Z,94938.06
2023-02-11T00:52:30.052Z,94941.50
2023-02-11T00:54:57.724Z,94938.66
2023-02-11T00:57:25.136Z,94937.19
2023-02-11T00:59:52.376Z,94936.09
2023-02-11T01:02:19.974Z,94930.22
2023-02-11T01:04:47.427Z,94932.03
2023-02-11T01:07:14.827Z,94922.00
2023-02-11T01:09:42.480Z,94926.72
2023-02-11T01:12:09.834Z,94933.91
2023-02-11T01:14:37.165Z,94931.78
2023-02-11T01:17:06.350Z,94919.41
2023-02-11T01:19:33.886Z,94921.94
2023-02-11T01:22:01.481Z,94921.62
2023-02-11T01:24:29.254Z,94926.78
2023-02-11T01:26:57.140Z,94920.06
2023-02-11T01:29:24.719Z,94922.50
2023-02-11T01:31:54.881Z,94921.53
2023-02-11T01:34:22.174Z,94915.94
2023-02-11T01:36:50.384Z,94914.75
2023-02-11T01:39:17.979Z,94908.69
2023-02-11T01:41:46.902Z,94901.06
2023-02-11T01:44:36.742Z,94908.66
2023-02-11T01:47:06.830Z,94906.97
2023-02-11T01:49:41.793Z,94913.09
2023-02-11T01:52:19.286Z,94916.66
2023-02-11T01:55:10.063Z,94903.59
2023-02-11T01:57:41.864Z,94896.63
2023-02-11T02:00:09.278Z,94899.16
2023-02-11T02:02:44.627Z,94902.22
2023-02-11T02:05:58.169Z,94906.09
2023-02-11T02:08:32.336Z,94902.72
2023-02-11T02:11:03.216Z,94901.97
2023-02-11T02:13:32.762Z,94895.25
2023-02-11T02:16:06.653Z,94896.28
2023-02-11T02:18:35.056Z,94910.03
2023-02-11T02:21:45.097Z,94903.47
2023-02-11T02:24:49.484Z,94899.25
2023-02-11T02:27:42.454Z,94897.81
2023-02-11T02:30:42.150Z,94894.91
2023-02-11T02:33:22.805Z,94894.37
2023-02-11T02:36:24.428Z,94895.06
2023-02-11T02:39:01.263Z,94893.69
2023-02-11T02:41:32.689Z,94897.16
2023-02-11T02:44:00.762Z,94898.12
2023-02-11T02:46:30.616Z,94899.34
2023-02-11T02:48:58.830Z,94902.00
2023-02-11T02:51:48.266Z,94899.19
2023-02-11T02:54:46.681Z,94907.84
2023-02-11T02:57:26.431Z,94902.53
2023-02-11T03:00:29.979Z,94898.28
2023-02-11T03:03:16.442Z,94898.91
2023-02-11T03:06:05.220Z,94903.38
2023-02-11T03:08:36.775Z,94903.00
2023-02-11T03:11:06.643Z,94903.50
2023-02-11T03:13:36.949Z,94893.06
2023-02-11T03:16:11.831Z,94903.50
2023-02-11T03:18:46.536Z,94906.88
2023-02-11T03:21:16.414Z,94900.75
2023-02-11T03:23:55.315Z,94901.19
2023-02-11T03:26:34.668Z,94897.38
2023-02-11T03:29:32.263Z,94903.28
2023-02-11T03:32:17.617Z,94903.97
2023-02-11T03:35:00.416Z,94901.19
2023-02-11T03:37:36.841Z,94902.75
2023-02-11T03:40:12.239Z,94893.81
2023-02-11T03:43:12.916Z,94904.47
2023-02-11T03:45:42.173Z,94895.81
2023-02-11T03:48:16.251Z,94899.91
2023-02-11T03:50:46.649Z,94900.53
2023-02-11T03:53:15.255Z,94906.03
2023-02-11T03:55:44.077Z,94901.13
2023-02-11T03:58:11.760Z,94902.00
2023-02-11T04:00:41.578Z,94898.06
2023-02-11T04:03:10.596Z,94898.19
2023-02-11T04:05:38.076Z,94894.75
2023-02-11T04:08:05.798Z,94890.03
2023-02-11T04:10:33.512Z,94890.38
2023-02-11T04:13:00.742Z,94882.62
2023-02-11T04:15:28.029Z,94887.53
2023-02-11T04:17:55.716Z,94886.44
2023-02-11T04:20:23.153Z,94891.88
2023-02-11T04:22:50.481Z,94892.31
2023-02-11T04:25:18.136Z,94888.00
2023-02-11T04:27:45.409Z,94887.53
2023-02-11T04:30:13.438Z,94881.19
2023-02-11T04:32:41.102Z,94884.72
2023-02-11T04:35:08.794Z,94892.78
2023-02-11T04:37:36.104Z,94888.66
2023-02-11T04:40:04.696Z,94890.16
2023-02-11T04:42:32.051Z,94880.31
2023-02-11T04:44:59.397Z,94887.69
2023-02-11T04:47:27.069Z,94889.00
2023-02-11T04:49:54.531Z,94882.69
2023-02-11T04:52:21.865Z,94880.31
2023-02-11T04:54:49.582Z,94889.19
2023-02-11T04:57:17.037Z,94886.63
2023-02-11T04:59:44.407Z,94886.87
2023-02-11T05:02:12.065Z,94877.06
2023-02-11T05:04:39.422Z,94869.78
2023-02-11T05:07:06.839Z,94864.72
2023-02-11T05:09:34.455Z,94863.84
2023-02-11T05:12:01.799Z,94869.19
2023-02-11T05:14:29.053Z,94878.37
2023-02-11T05:16:56.683Z,94874.16
2023-02-11T05:19:24.033Z,94874.25
2023-02-11T05:22:02.176Z,94863.44
2023-02-11T05:24:31.561Z,94861.78
2023-02-11T05:26:58.974Z,94869.19
2023-02-11T05:29:26.328Z,94867.12
2023-02-11T05:31:54.101Z,94870.06
2023-02-11T05:34:21.498Z,94865.13
2023-02-11T05:36:48.746Z,94866.66
2023-02-11T05:39:16.436Z,94864.53
2023-02-11T05:41:43.900Z,94857.63
2023-02-11T05:44:11.464Z,94866.13
2023-02-11T05:46:39.253Z,94866.84
2023-02-11T05:49:06.649Z,94871.31
2023-02-11T05:51:34.083Z,94866.84
2023-02-11T05:54:01.901Z,94864.41
2023-02-11T05:56:29.213Z,94865.50
2023-02-11T05:58:58.473Z,94873.41
2023-02-11T06:01:26.959Z,94875.25
2023-02-11T06:03:55.227Z,94879.31
2023-02-11T06:06:22.582Z,94867.44
2023-02-11T06:08:50.018Z,94875.81
2023-02-11T06:11:18.102Z,94875.25
2023-02-11T06:13:45.518Z,94883.88
2023-02-11T06:16:12.924Z,94879.69
2023-02-11T06:18:40.654Z,94879.75
2023-02-11T06:21:12.390Z,94876.44
2023-02-11T06:23:39.938Z,94874.75
2023-02-11T06:26:09.704Z,94876.53
2023-02-11T06:28:39.333Z,94880.69
2023-02-11T06:31:09.940Z,94883.97
2023-02-11T06:33:38.183Z,94880.56
2023-02-11T06:36:12.806Z,94877.66
2023-02-11T06:38:40.674Z,94882.56
2023-02-11T06:41:13.665Z,94873.78
2023-02-11T06:43:42.061Z,94878.69
2023-02-11T06:46:09.919Z,94874.75
2023-02-11T06:48:37.322Z,94869.44
2023-02-11T06:51:07.434Z,94878.00
2023-02-11T06:53:41.417Z,94879.47
2023-02-11T06:56:12.862Z,94865.28
2023-02-11T06:58:40.175Z,94863.09
2023-02-11T07:01:09.499Z,94865.50
2023-02-11T07:03:39.542Z,94867.81
2023-02-11T07:06:08.489Z,94866.47
2023-02-11T07:08:36.777Z,94872.03
2023-02-11T07:11:12.597Z,94865.84
2023-02-11T07:13:40.095Z,94854.91
2023-02-11T07:16:14.067Z,94856.09
2023-02-11T07:18:41.811Z,94853.09
2023-02-11T07:21:11.980Z,94856.37
2023-02-11T07:23:42.512Z,94854.00
2023-02-11T07:26:14.719Z,94849.56
2023-02-11T07:28:42.752Z,94849.28
2023-02-11T07:31:18.726Z,94841.03
2023-02-11T07:33:46.412Z,94846.81
2023-02-11T07:36:15.804Z,94849.09
2023-02-11T07:38:43.393Z,94839.13
2023-02-11T07:41:13.691Z,94832.44
2023-02-11T07:43:42.364Z,94825.56
2023-02-11T07:46:16.990Z,94826.28
2023-02-11T07:48:44.854Z,94831.47
2023-02-11T07:51:23.524Z,94826.41
2023-02-11T07:53:52.299Z,94813.31
2023-02-11T07:56:20.666Z,94812.44
2023-02-11T07:58:49.000Z,94813.41
2023-02-11T08:01:25.239Z,94808.84
2023-02-11T08:03:54.057Z,94802.41
2023-02-11T08:06:23.055Z,94803.97
2023-02-11T08:08:50.818Z,94801.28
2023-02-11T08:11:21.639Z,94795.03
2023-02-11T08:13:49.081Z,94790.34
2023-02-11T08:16:31.741Z,94790.31
2023-02-11T08:19:01.950Z,94782.97
2023-02-11T08:21:29.856Z,94778.41
2023-02-11T08:23:57.467Z,94775.38
2023-02-11T08:26:28.526Z,94784.38
2023-02-11T08:28:57.723Z,94773.25
2023-02-11T08:31:31.253Z,94776.16
2023-02-11T08:33:59.145Z,94772.87
2023-02-11T08:36:32.529Z,94771.63
2023-02-11T08:39:18.202Z,94773.50
2023-02-11T08:41:53.155Z,94775.34
2023-02-11T08:44:21.620Z,94775.88
2023-02-11T08:46:50.421Z,94777.22
2023-02-11T08:49:18.154Z,94780.59
2023-02-11T08:51:46.486Z,94776.94
2023-02-11T08:54:14.838Z,94779.66
2023-02-11T08:56:42.223Z,94767.19
2023-02-11T08:59:13.843Z,94769.62
2023-02-11T09:01:41.784Z,94777.09
2023-02-11T09:04:10.752Z,94776.94
2023-02-11T09:06:38.092Z,94773.69
2023-02-11T09:09:06.032Z,94770.69
2023-02-11T09:11:35.864Z,94770.91
2023-02-11T09:14:05.061Z,94773.03
2023-02-11T09:16:36.741Z,94779.72
2023-02-11T09:19:05.798Z,94771.56
2023-02-11T09:21:33.416Z,94766.03
2023-02-11T09:24:00.805Z,94763.91
2023-02-11T09:26:35.320Z,94765.53
2023-02-11T09:29:04.883Z,94761.91
2023-02-11T09:31:34.011Z,94758.50
2023-02-11T09:34:05.959Z,94757.00
2023-02-11T09:36:39.151Z,94745.47
2023-02-11T09:39:17.148Z,94740.38
2023-02-11T09:42:09.837Z,94737.38
2023-02-11T09:44:38.847Z,94732.97
2023-02-11T09:47:30.576Z,94728.69
2023-02-11T09:50:04.430Z,94727.19
2023-02-11T09:52:49.178Z,94728.75
2023-02-11T09:55:25.350Z,94721.19
2023-02-11T09:57:53.285Z,94714.88
2023-02-11T10:00:27.747Z,94716.88
2023-02-11T10:03:04.131Z,94706.84
2023-02-11T10:05:34.175Z,94691.16
2023-02-11T10:08:14.624Z,94685.97
2023-02-11T10:10:59.097Z,94689.91
2023-02-11T10:13:29.902Z,94684.41
2023-02-11T10:16:10.463Z,94678.88
2023-02-11T10:18:41.641Z,94678.56
2023-02-11T10:21:33.015Z,94671.56
2023-02-11T10:24:05.696Z,94676.84
2023-02-11T10:26:34.617Z,94666.31
2023-02-11T10:29:11.767Z,94666.91
2023-02-11T10:31:45.222Z,94652.22
2023-02-11T10:34:14.979Z,94644.13
2023-02-11T10:36:43.130Z,94633.53
2023-02-11T10:39:12.904Z,94625.94
2023-02-11T10:42:03.220Z,94623.19
2023-02-11T10:44:46.094Z,94618.81
2023-02-11T10:47:22.586Z,94603.28
2023-02-11T10:49:50.203Z,94601.34
2023-02-11T10:52:17.877Z,94601.88
2023-02-11T10:55:27.973Z,94593.75
2023-02-11T10:58:03.661Z,94592.06
2023-02-11T11:00:43.437Z,94575.13
2023-02-11T11:03:25.737Z,94571.28
2023-02-11T11:06:02.074Z,94567.34
2023-02-11T11:08:49.916Z,94568.34
2023-02-11T11:11:22.404Z,94570.09
2023-02-11T11:13:53.046Z,94562.22
2023-02-11T11:16:32.503Z,94553.81
2023-02-11T11:19:24.569Z,94562.69
2023-02-11T11:21:54.287Z,94551.72
2023-02-11T11:24:34.776Z,94538.00
2023-02-11T11:27:04.517Z,94540.47
2023-02-11T11:29:39.623Z,94542.41
2023-02-11T11:32:15.704Z,94542.78
2023-02-11T11:34:50.887Z,94541.84
2023-02-11T11:37:28.939Z,94534.63
2023-02-11T11:40:01.800Z,94538.94
2023-02-11T11:42:30.593Z,94528.94
2023-02-11T11:45:25.940Z,94526.19
2023-02-11T11:47:59.959Z,94535.78
2023-02-11T11:50:45.095Z,94527.06
2023-02-11T11:53:44.817Z,94534.34
2023-02-11T11:56:27.721Z,94534.78
2023-02-11T11:58:55.163Z,94526.19
2023-02-11T12:01:58.325Z,94520.81
2023-02-11T12:04:35.035Z,94516.03
2023-02-11T12:07:30.350Z,94511.44
2023-02-11T12:10:26.737Z,94509.59
2023-02-11T12:13:18.781Z,94507.00
2023-02-11T12:15:58.722Z,94512.25
2023-02-11T12:18:49.344Z,94508.34
2023-02-11T12:21:23.096Z,94501.25
2023-02-11T12:24:16.941Z,94494.91
2023-02-11T12:26:53.236Z,94494.91
2023-02-11T12:29:49.041Z,94489.13
2023-02-11T12:32:36.602Z,94491.94
2023-02-11T12:35:21.057Z,94491.56
2023-02-11T12:38:36.999Z,94480.31
2023-02-11T12:42:04.319Z,94479.31
2023-02-11T12:44:56.231Z,94475.28
2023-02-11T12:48:03.176Z,94479.44
2023-02-11T12:50:55.167Z,94473.81
2023-02-11T12:53:34.406Z,94472.16
2023-02-11T12:56:53.202Z,94465.19
2023-02-11T12:59:55.593Z,94466.53
2023-02-11T13:02:54.657Z,94476.06
2023-02-11T13:05:32.315Z,94457.47
2023-02-11T13:08:41.528Z,94467.25
2023-02-11T13:11:15.192Z,94456.28
2023-02-11T13:13:45.580Z,94454.91
2023-02-11T13:16:37.044Z,94453.34
2023-02-11T13:19:13.920Z,94444.41
2023-02-11T13:22:06.220Z,94441.28
2023-02-11T13:24:49.601Z,94448.50
2023-02-11T13:27:30.192Z,94437.41
2023-02-11T13:30:14.171Z,94440.44
2023-02-11T13:32:56.853Z,94440.38
2023-02-11T13:35:56.742Z,94427.19
2023-02-11T13:38:29.807Z,94431.81
2023-02-11T13:41:18.483Z,94426.72
2023-02-11T13:44:01.777Z,94428.84
2023-02-11T13:46:50.101Z,94427.50
2023-02-11T13:49:28.174Z,94423.91
2023-02-11T13:51:57.395Z,94425.81
2023-02-11T13:54:33.546Z,94429.34
2023-02-11T13:57:16.682Z,94429.53
2023-02-11T13:59:47.379Z,94423.66
2023-02-11T14:02:49.623Z,94424.34
2023-02-11T14:05:43.555Z,94417.75
2023-02-11T14:08:29.277Z,94411.44
2023-02-11T14:10:58.570Z,94413.97
2023-02-11T14:13:29.061Z,94410.50
2023-02-11T14:16:14.006Z,94406.25
2023-02-11T14:18:47.427Z,94403.41
2023-02-11T14:21:33.416Z,94397.34
2023-02-11T14:24:05.191Z,94391.09
2023-02-11T14:26:59.392Z,94390.66
2023-02-11T14:29:35.207Z,94397.25
2023-02-11T14:32:26.675Z,94386.66
2023-02-11T14:34:54.069Z,94387.03
2023-02-11T14:37:50.923Z,94385.13
2023-02-11T14:40:42.112Z,94375.69
2023-02-11T14:43:17.120Z,94379.84
2023-02-11T14:45:50.329Z,94376.81
2023-02-11T14:48:20.256Z,94381.50
2023-02-11T14:50:59.374Z,94385.09
2023-02-11T14:53:30.739Z,94385.94
2023-02-11T14:55:59.512Z,94390.94
2023-02-11T14:58:32.678Z,94393.34
2023-02-11T15:01:03.984Z,94400.81
2023-02-11T15:03:37.844Z,94400.59
2023-02-11T15:06:07.537Z,94398.94
2023-02-11T15:08:38.493Z,94404.16
2023-02-11T15:11:12.232Z,94408.22
2023-02-11T15:13:47.579Z,94405.34
2023-02-11T15:16:19.898Z,94402.62
2023-02-11T15:18:54.361Z,94398.16
2023-02-11T15:21:28.061Z,94398.16
2023-02-11T15:24:06.381Z,94400.66
2023-02-11T15:26:34.439Z,94407.47
2023-02-11T15:29:02.149Z,94402.34
2023-02-11T15:31:30.726Z,94391.50
2023-02-11T15:34:07.915Z,94394.25
2023-02-11T15:36:36.564Z,94398.00
2023-02-11T15:39:29.484Z,94395.19
2023-02-11T15:41:57.540Z,94387.62
2023-02-11T15:44:30.792Z,94384.88
2023-02-11T15:46:59.276Z,94386.41
2023-02-11T15:49:27.125Z,94389.56
2023-02-11T15:51:57.401Z,94389.75
2023-02-11T15:54:29.641Z,94385.09
2023-02-11T15:57:04.053Z,94387.53
2023-02-11T15:59:40.796Z,94390.59
2023-02-11T16:02:17.377Z,94388.53
2023-02-11T16:04:52.146Z,94388.56
2023-02-11T16:07:37.994Z,94385.97
2023-02-11T16:10:22.593Z,94386.28
2023-02-11T16:12:53.680Z,94379.50
2023-02-11T16:15:34.053Z,94385.66
2023-02-11T16:18:03.754Z,94379.81
2023-02-11T16:20:32.169Z,94390.75
2023-02-11T16:23:00.002Z,94386.56
2023-02-11T16:25:27.384Z,94392.00
2023-02-11T16:27:55.179Z,94388.94
2023-02-11T16:30:40.780Z,94392.09
2023-02-11T16:33:11.184Z,94390.78
2023-02-11T16:35:38.778Z,94395.88
2023-02-11T16:38:06.517Z,94390.81
2023-02-11T16:40:34.311Z,94398.84
2023-02-11T16:43:01.781Z,94399.63
2023-02-11T16:45:29.168Z,94399.28
2023-02-11T16:47:56.854Z,94403.53
2023-02-11T16:50:25.625Z,94405.44
2023-02-11T16:52:53.102Z,94404.06
2023-02-11T16:55:22.058Z,94401.78
2023-02-11T16:57:49.992Z,94401.16
2023-02-11T17:00:18.240Z,94388.50
2023-02-11T17:02:46.133Z,94399.59
2023-02-11T17:05:25.282Z,94401.38
2023-02-11T17:07:52.797Z,94399.47
2023-02-11T17:10:22.668Z,94393.44
2023-02-11T17:12:51.530Z,94397.41
2023-02-11T17:15:19.598Z,94403.03
2023-02-11T17:17:46.871Z,94399.97
2023-02-11T17:20:15.052Z,94401.91
2023-02-11T17:22:42.764Z,94394.75
2023-02-11T17:25:10.782Z,94402.34
2023-02-11T17:27:40.643Z,94400.22
2023-02-11T17:30:09.124Z,94396.66
2023-02-11T17:32:37.428Z,94399.97
2023-02-11T17:35:07.755Z,94399.56
2023-02-11T17:37:35.576Z,94397.72
2023-02-11T17:40:02.948Z,94397.44
2023-02-11T17:42:33.752Z,94397.28
2023-02-11T17:45:01.439Z,94401.00
2023-02-11T17:47:32.160Z,94395.12
2023-02-11T17:49:59.839Z,94407.88
2023-02-11T17:52:28.346Z,94410.59
2023-02-11T17:54:56.209Z,94407.63
2023-02-11T17:57:23.567Z,94407.22
2023-02-11T17:59:51.784Z,94409.03
2023-02-11T18:02:19.194Z,94413.66
2023-02-11T18:04:46.914Z,94417.47
2023-02-11T18:07:14.547Z,94414.63
2023-02-11T18:09:42.347Z,94410.47
2023-02-11T18:12:10.997Z,94411.44
2023-02-11T18:14:40.608Z,94413.47
2023-02-11T18:17:08.165Z,94421.06
2023-02-11T18:19:36.791Z,94419.84
2023-02-11T18:22:04.545Z,94425.09
2023-02-11T18:24:31.936Z,94419.97
2023-02-11T18:26:59.817Z,94426.47
2023-02-11T18:29:27.590Z,94422.69
2023-02-11T18:31:56.897Z,94414.72
2023-02-11T18:34:25.660Z,94418.22
2023-02-11T18:36:53.201Z,94411.16
2023-02-11T18:39:24.400Z,94414.31
2023-02-11T18:41:55.374Z,94413.50
2023-02-11T18:44:24.974Z,94403.91
2023-02-11T18:46:54.295Z,94407.16
2023-02-11T18:49:21.712Z,94414.44
2023-02-11T18:51:49.057Z,94410.81
2023-02-11T18:54:16.812Z,94402.03
2023-02-11T18:56:44.321Z,94404.72
2023-02-11T18:59:12.716Z,94402.81
2023-02-11T19:01:43.429Z,94402.69
2023-02-11T19:04:11.594Z,94401.59
2023-02-11T19:06:39.195Z,94391.13
2023-02-11T19:09:10.089Z,94390.44
2023-02-11T19:11:49.982Z,94393.06
2023-02-11T19:14:32.162Z,94400.72
2023-02-11T19:17:01.766Z,94393.25
2023-02-11T19:19:32.716Z,94393.75
2023-02-11T19:22:00.796Z,94389.22
2023-02-11T19:24:29.574Z,94393.22
2023-02-11T19:27:00.663Z,94389.63
2023-02-11T19:29:29.405Z,94396.44
2023-02-11T19:31:57.378Z,94394.84
2023-02-11T19:34:24.963Z,94395.75
2023-02-11T19:36:53.531Z,94394.06
2023-02-11T19:39:21.411Z,94386.28
2023-02-11T19:41:48.948Z,94392.06
2023-02-11T19:44:16.850Z,94394.13
2023-02-11T19:46:46.135Z,94385.22
2023-02-11T19:49:23.260Z,94388.75
2023-02-11T19:51:52.568Z,94393.78
2023-02-11T19:54:20.828Z,94383.13
2023-02-11T19:56:49.562Z,94392.06
2023-02-11T19:59:18.128Z,94390.91
2023-02-11T20:01:47.877Z,94387.97
2023-02-11T20:04:17.322Z,94385.53
2023-02-11T20:06:45.188Z,94394.59
2023-02-11T20:09:15.082Z,94380.31
2023-02-11T20:11:42.989Z,94378.38
2023-02-11T20:14:14.875Z,94374.25
2023-02-11T20:16:49.095Z,94363.88
2023-02-11T20:19:19.700Z,94364.78
2023-02-11T20:21:49.342Z,94376.31
2023-02-11T20:24:19.120Z,94365.41
2023-02-11T20:26:48.789Z,94366.00
2023-02-11T20:29:19.421Z,94364.28
2023-02-11T20:31:49.697Z,94357.59
2023-02-11T20:34:18.034Z,94364.22
2023-02-11T20:36:53.029Z,94358.91
2023-02-11T20:39:23.589Z,94359.03
2023-02-11T20:41:51.965Z,94335.41
2023-02-11T20:44:21.908Z,94347.38
2023-02-11T20:46:50.781Z,94341.75
2023-02-11T20:49:21.685Z,94347.09
2023-02-11T20:51:49.800Z,94350.25
2023-02-11T20:54:20.337Z,94334.78
2023-02-11T20:56:48.504Z,94345.34
2023-02-11T20:59:17.037Z,94333.84
2023-02-11T21:01:47.958Z,94349.75
2023-02-11T21:04:24.526Z,94341.06
2023-02-11T21:06:55.207Z,94329.91
2023-02-11T21:09:25.996Z,94340.38
2023-02-11T21:11:54.404Z,94336.88
2023-02-11T21:14:24.193Z,94335.81
2023-02-11T21:16:52.225Z,94326.44
2023-02-11T21:19:20.430Z,94327.09
2023-02-11T21:21:48.098Z,94317.13
2023-02-11T21:24:15.862Z,94317.91
2023-02-11T21:26:43.892Z,94317.28
2023-02-11T21:29:12.029Z,94306.16
2023-02-11T21:31:40.239Z,94308.94
2023-02-11T21:34:08.421Z,94304.69
2023-02-11T21:36:35.923Z,94305.41
2023-02-11T21:39:04.420Z,94302.84
2023-02-11T21:41:32.140Z,94307.22
2023-02-11T21:43:59.680Z,94297.06
2023-02-11T21:46:28.197Z,94298.69
2023-02-11T21:48:56.859Z,94285.22
2023-02-11T21:51:25.867Z,94299.09
2023-02-11T21:53:55.153Z,94294.66
2023-02-11T21:56:24.835Z,94294.84
2023-02-11T21:58:52.941Z,94302.16
2023-02-11T22:01:31.870Z,94289.88
2023-02-11T22:03:59.609Z,94292.53
2023-02-11T22:06:31.201Z,94290.56
2023-02-11T22:09:02.168Z,94292.28
2023-02-11T22:11:29.908Z,94284.87
2023-02-11T22:13:58.020Z,94282.19
2023-02-11T22:16:27.140Z,94283.94
2023-02-11T22:18:57.020Z,94271.22
2023-02-11T22:21:25.151Z,94280.53
2023-02-11T22:23:54.643Z,94277.78
2023-02-11T22:26:24.012Z,94283.00
2023-02-11T22:28:52.726Z,94284.56
2023-02-11T22:31:24.411Z,94286.50
2023-02-11T22:33:52.317Z,94288.12
2023-02-11T22:36:29.404Z,94296.56
2023-02-11T22:39:01.629Z,94288.47
2023-02-11T22:41:29.211Z,94293.59
2023-02-11T22:43:56.945Z,94285.34
2023-02-11T22:46:24.441Z,94289.25
2023-02-11T22:48:52.564Z,94277.81
2023-02-11T22:51:25.968Z,94275.03
2023-02-11T22:53:58.967Z,94277.50
2023-02-11T22:56:28.033Z,94274.81
2023-02-11T22:59:00.074Z,94275.16
2023-02-11T23:01:29.554Z,94271.69
2023-02-11T23:03:58.916Z,94266.56
2023-02-11T23:06:26.136Z,94271.88
2023-02-11T23:08:54.150Z,94273.66
2023-02-11T23:11:25.675Z,94260.16
2023-02-11T23:13:54.082Z,94274.50
2023-02-11T23:16:25.896Z,94266.94
2023-02-11T23:18:54.961Z,94265.75
2023-02-11T23:21:25.301Z,94265.53
2023-02-11T23:24:02.048Z,94266.94
2023-02-11T23:26:30.002Z,94263.44
2023-02-11T23:28:59.058Z,94261.56
2023-02-11T23:31:30.117Z,94254.16
2023-02-11T23:33:57.855Z,94239.31
2023-02-11T23:36:25.282Z,94245.13
2023-02-11T23:38:52.644Z,94242.44
2023-02-11T23:41:20.860Z,94235.91
2023-02-11T23:43:53.516Z,94243.78
2023-02-11T23:46:22.297Z,94240.66
2023-02-11T23:48:52.093Z,94238.97
2023-02-11T23:51:20.391Z,94230.87
2023-02-11T23:53:49.472Z,94234.66
2023-02-11T23:56:22.789Z,94238.44
2023-02-11T23:58:52.344Z,94247.19
